sensor_id;sensor_type;location;lat;lon;timestamp;pressure;altitude;pressure_sealevel;temperature;humidity
64835;BME280;51293;59.296;18.006;2023-01-28T00:00:23;101873.81;;;-3.93;100.00
64835;BME280;51293;59.296;18.006;2023-01-28T00:02:48;101871.91;;;-3.91;100.00
64835;BME280;51293;59.296;18.006;2023-01-28T00:05:14;101874.38;;;-4.01;100.00
64835;BME280;51293;59.296;18.006;2023-01-28T00:07:40;101868.22;;;-4.01;100.00
64835;BME280;51293;59.296;18.006;2023-01-28T00:10:05;101864.50;;;-3.99;100.00
64835;BME280;51293;59.296;18.006;2023-01-28T00:12:31;101856.44;;;-3.84;100.00
64835;BME280;51293;59.296;18.006;2023-01-28T00:14:56;101844.69;;;-3.80;100.00
64835;BME280;51293;59.296;18.006;2023-01-28T00:17:22;101834.59;;;-3.75;100.00
64835;BME280;51293;59.296;18.006;2023-01-28T00:19:47;101839.72;;;-3.85;100.00
64835;BME280;51293;59.296;18.006;2023-01-28T00:22:12;101844.03;;;-3.84;100.00
64835;BME280;51293;59.296;18.006;2023-01-28T00:24:38;101839.56;;;-3.71;100.00
64835;BME280;51293;59.296;18.006;2023-01-28T00:27:03;101831.81;;;-3.61;100.00
64835;BME280;51293;59.296;18.006;2023-01-28T00:29:29;101818.44;;;-3.59;100.00
64835;BME280;51293;59.296;18.006;2023-01-28T00:31:54;101819.16;;;-3.57;100.00
64835;BME280;51293;59.296;18.006;2023-01-28T00:34:20;101827.75;;;-3.54;100.00
64835;BME280;51293;59.296;18.006;2023-01-28T00:36:46;101820.81;;;-3.44;99.82
64835;BME280;51293;59.296;18.006;2023-01-28T00:39:22;101815.00;;;-3.49;99.21
64835;BME280;51293;59.296;18.006;2023-01-28T00:41:47;101809.09;;;-3.52;99.35
64835;BME280;51293;59.296;18.006;2023-01-28T00:44:12;101809.81;;;-3.50;98.52
64835;BME280;51293;59.296;18.006;2023-01-28T00:46:38;101804.41;;;-3.49;98.47
64835;BME280;51293;59.296;18.006;2023-01-28T00:49:06;101797.41;;;-3.50;98.56
64835;BME280;51293;59.296;18.006;2023-01-28T00:51:31;101798.63;;;-3.54;98.50
64835;BME280;51293;59.296;18.006;2023-01-28T00:53:57;101787.66;;;-3.49;98.21
64835;BME280;51293;59.296;18.006;2023-01-28T00:56:22;101787.78;;;-3.51;98.31
64835;BME280;51293;59.296;18.006;2023-01-28T00:58:47;101777.19;;;-3.51;97.70
64835;BME280;51293;59.296;18.006;2023-01-28T01:01:16;101781.75;;;-3.53;97.75
64835;BME280;51293;59.296;18.006;2023-01-28T01:03:42;101768.13;;;-3.59;98.04
64835;BME280;51293;59.296;18.006;2023-01-28T01:06:09;101766.31;;;-3.59;98.02
64835;BME280;51293;59.296;18.006;2023-01-28T01:08:35;101766.56;;;-3.62;97.78
64835;BME280;51293;59.296;18.006;2023-01-28T01:11:07;101765.47;;;-3.59;97.70
64835;BME280;51293;59.296;18.006;2023-01-28T01:13:33;101761.84;;;-3.58;97.21
64835;BME280;51293;59.296;18.006;2023-01-28T01:18:32;101760.59;;;-3.42;95.87
64835;BME280;51293;59.296;18.006;2023-01-28T01:20:58;101763.94;;;-3.51;96.12
64835;BME280;51293;59.296;18.006;2023-01-28T01:23:27;101755.31;;;-3.42;95.77
64835;BME280;51293;59.296;18.006;2023-01-28T01:25:53;101750.56;;;-3.49;95.72
64835;BME280;51293;59.296;18.006;2023-01-28T01:28:19;101751.34;;;-3.47;95.85
64835;BME280;51293;59.296;18.006;2023-01-28T01:30:46;101746.13;;;-3.49;95.45
64835;BME280;51293;59.296;18.006;2023-01-28T01:33:11;101742.50;;;-3.48;95.53
64835;BME280;51293;59.296;18.006;2023-01-28T01:35:37;101734.53;;;-3.59;95.92
64835;BME280;51293;59.296;18.006;2023-01-28T01:38:02;101724.19;;;-3.62;96.16
64835;BME280;51293;59.296;18.006;2023-01-28T01:40:28;101715.28;;;-3.61;96.57
64835;BME280;51293;59.296;18.006;2023-01-28T01:42:54;101716.63;;;-3.55;95.88
64835;BME280;51293;59.296;18.006;2023-01-28T01:45:20;101710.94;;;-3.62;95.96
64835;BME280;51293;59.296;18.006;2023-01-28T01:50:33;101708.28;;;-3.62;96.06
64835;BME280;51293;59.296;18.006;2023-01-28T01:53:03;101704.91;;;-3.64;95.76
64835;BME280;51293;59.296;18.006;2023-01-28T01:55:33;101706.59;;;-3.63;95.93
64835;BME280;51293;59.296;18.006;2023-01-28T01:58:03;101705.13;;;-3.67;96.03
64835;BME280;51293;59.296;18.006;2023-01-28T02:00:30;101705.97;;;-3.67;96.10
64835;BME280;51293;59.296;18.006;2023-01-28T02:02:56;101696.03;;;-3.63;95.73
64835;BME280;51293;59.296;18.006;2023-01-28T02:05:23;101691.06;;;-3.68;95.80
64835;BME280;51293;59.296;18.006;2023-01-28T02:07:51;101694.34;;;-3.64;95.74
64835;BME280;51293;59.296;18.006;2023-01-28T02:10:37;101684.19;;;-3.70;95.90
64835;BME280;51293;59.296;18.006;2023-01-28T02:13:03;101666.50;;;-3.70;96.02
64835;BME280;51293;59.296;18.006;2023-01-28T02:15:29;101660.75;;;-3.63;95.58
64835;BME280;51293;59.296;18.006;2023-01-28T02:17:55;101657.00;;;-3.72;96.07
64835;BME280;51293;59.296;18.006;2023-01-28T02:23:30;101644.81;;;-3.75;96.25
64835;BME280;51293;59.296;18.006;2023-01-28T02:28:50;101639.38;;;-3.73;96.80
64835;BME280;51293;59.296;18.006;2023-01-28T02:36:44;101619.19;;;-3.74;96.26
64835;BME280;51293;59.296;18.006;2023-01-28T02:39:23;101622.78;;;-3.75;96.79
64835;BME280;51293;59.296;18.006;2023-01-28T02:41:55;101625.09;;;-3.71;96.28
64835;BME280;51293;59.296;18.006;2023-01-28T02:44:22;101611.09;;;-3.73;96.21
64835;BME280;51293;59.296;18.006;2023-01-28T02:46:47;101598.97;;;-3.75;96.78
64835;BME280;51293;59.296;18.006;2023-01-28T02:49:45;101595.00;;;-3.70;96.79
64835;BME280;51293;59.296;18.006;2023-01-28T02:52:37;101602.59;;;-3.65;96.37
64835;BME280;51293;59.296;18.006;2023-01-28T03:04:03;101581.19;;;-3.62;96.67
64835;BME280;51293;59.296;18.006;2023-01-28T03:06:46;101571.91;;;-3.56;96.25
64835;BME280;51293;59.296;18.006;2023-01-28T03:09:14;101574.34;;;-3.53;96.18
64835;BME280;51293;59.296;18.006;2023-01-28T03:11:54;101571.31;;;-3.49;96.07
64835;BME280;51293;59.296;18.006;2023-01-28T03:14:39;101561.47;;;-3.47;96.24
64835;BME280;51293;59.296;18.006;2023-01-28T03:17:35;101553.00;;;-3.41;95.96
64835;BME280;51293;59.296;18.006;2023-01-28T03:20:26;101547.25;;;-3.34;95.55
64835;BME280;51293;59.296;18.006;2023-01-28T03:23:16;101545.22;;;-3.31;95.42
64835;BME280;51293;59.296;18.006;2023-01-28T03:26:06;101554.22;;;-3.33;95.59
64835;BME280;51293;59.296;18.006;2023-01-28T03:28:53;101546.78;;;-3.28;95.51
64835;BME280;51293;59.296;18.006;2023-01-28T03:31:40;101553.75;;;-3.27;95.71
64835;BME280;51293;59.296;18.006;2023-01-28T03:34:24;101542.91;;;-3.24;95.90
64835;BME280;51293;59.296;18.006;2023-01-28T03:37:08;101545.41;;;-3.23;95.45
64835;BME280;51293;59.296;18.006;2023-01-28T03:39:34;101528.59;;;-3.22;95.85
64835;BME280;51293;59.296;18.006;2023-01-28T03:42:04;101532.06;;;-3.21;96.04
64835;BME280;51293;59.296;18.006;2023-01-28T03:44:30;101521.22;;;-3.18;95.47
64835;BME280;51293;59.296;18.006;2023-01-28T03:47:18;101518.44;;;-3.17;95.76
64835;BME280;51293;59.296;18.006;2023-01-28T03:49:47;101510.13;;;-3.12;95.30
64835;BME280;51293;59.296;18.006;2023-01-28T03:52:17;101512.56;;;-3.20;95.65
64835;BME280;51293;59.296;18.006;2023-01-28T03:54:44;101507.34;;;-3.11;95.90
64835;BME280;51293;59.296;18.006;2023-01-28T03:57:13;101501.34;;;-3.13;95.78
64835;BME280;51293;59.296;18.006;2023-01-28T03:59:38;101502.63;;;-3.07;95.63
64835;BME280;51293;59.296;18.006;2023-01-28T04:02:04;101500.00;;;-2.96;95.15
64835;BME280;51293;59.296;18.006;2023-01-28T04:04:30;101501.03;;;-2.87;94.70
64835;BME280;51293;59.296;18.006;2023-01-28T04:06:56;101477.41;;;-2.90;95.05
64835;BME280;51293;59.296;18.006;2023-01-28T04:09:22;101482.31;;;-2.74;94.97
64835;BME280;51293;59.296;18.006;2023-01-28T04:11:48;101474.41;;;-2.53;93.92
64835;BME280;51293;59.296;18.006;2023-01-28T04:14:15;101469.66;;;-2.50;93.80
64835;BME280;51293;59.296;18.006;2023-01-28T04:16:41;101465.22;;;-2.49;93.99
64835;BME280;51293;59.296;18.006;2023-01-28T04:19:10;101464.44;;;-2.40;93.29
64835;BME280;51293;59.296;18.006;2023-01-28T04:21:37;101458.28;;;-2.41;93.67
64835;BME280;51293;59.296;18.006;2023-01-28T04:24:03;101456.81;;;-2.34;93.94
64835;BME280;51293;59.296;18.006;2023-01-28T04:26:28;101457.13;;;-2.27;93.21
64835;BME280;51293;59.296;18.006;2023-01-28T04:28:54;101443.53;;;-2.34;93.77
64835;BME280;51293;59.296;18.006;2023-01-28T04:31:19;101439.13;;;-2.23;93.15
64835;BME280;51293;59.296;18.006;2023-01-28T04:33:44;101442.88;;;-2.26;93.23
64835;BME280;51293;59.296;18.006;2023-01-28T04:36:10;101442.38;;;-2.20;93.15
64835;BME280;51293;59.296;18.006;2023-01-28T04:38:35;101428.13;;;-2.19;92.77
64835;BME280;51293;59.296;18.006;2023-01-28T04:41:01;101423.00;;;-2.11;92.67
64835;BME280;51293;59.296;18.006;2023-01-28T04:43:26;101417.38;;;-2.17;92.96
64835;BME280;51293;59.296;18.006;2023-01-28T04:45:52;101395.16;;;-2.16;93.51
64835;BME280;51293;59.296;18.006;2023-01-28T04:48:17;101391.16;;;-2.11;93.08
64835;BME280;51293;59.296;18.006;2023-01-28T04:50:43;101397.75;;;-2.05;92.95
64835;BME280;51293;59.296;18.006;2023-01-28T04:53:09;101403.06;;;-2.05;92.86
64835;BME280;51293;59.296;18.006;2023-01-28T04:55:35;101400.28;;;-2.04;92.53
64835;BME280;51293;59.296;18.006;2023-01-28T04:58:01;101399.44;;;-2.04;92.38
64835;BME280;51293;59.296;18.006;2023-01-28T05:00:26;101391.72;;;-2.07;92.88
64835;BME280;51293;59.296;18.006;2023-01-28T05:02:52;101388.50;;;-2.11;92.60
64835;BME280;51293;59.296;18.006;2023-01-28T05:05:17;101389.06;;;-2.07;92.32
64835;BME280;51293;59.296;18.006;2023-01-28T05:07:46;101380.25;;;-2.08;92.37
64835;BME280;51293;59.296;18.006;2023-01-28T05:10:14;101382.66;;;-2.05;92.64
64835;BME280;51293;59.296;18.006;2023-01-28T05:12:39;101366.59;;;-2.03;92.54
64835;BME280;51293;59.296;18.006;2023-01-28T05:15:08;101370.09;;;-2.03;92.82
64835;BME280;51293;59.296;18.006;2023-01-28T05:17:33;101364.13;;;-1.95;92.68
64835;BME280;51293;59.296;18.006;2023-01-28T05:19:58;101354.63;;;-1.98;92.49
64835;BME280;51293;59.296;18.006;2023-01-28T05:22:24;101345.38;;;-2.03;93.23
64835;BME280;51293;59.296;18.006;2023-01-28T05:24:49;101336.44;;;-2.02;92.85
64835;BME280;51293;59.296;18.006;2023-01-28T05:27:15;101341.16;;;-2.06;93.15
64835;BME280;51293;59.296;18.006;2023-01-28T05:29:40;101335.19;;;-1.98;92.63
64835;BME280;51293;59.296;18.006;2023-01-28T05:32:05;101329.16;;;-2.00;93.35
64835;BME280;51293;59.296;18.006;2023-01-28T05:34:31;101318.00;;;-1.94;93.27
64835;BME280;51293;59.296;18.006;2023-01-28T05:36:56;101309.06;;;-1.93;93.12
64835;BME280;51293;59.296;18.006;2023-01-28T05:39:21;101315.66;;;-1.87;92.86
64835;BME280;51293;59.296;18.006;2023-01-28T05:41:47;101315.22;;;-1.83;93.02
64835;BME280;51293;59.296;18.006;2023-01-28T05:44:12;101314.13;;;-1.80;93.47
64835;BME280;51293;59.296;18.006;2023-01-28T05:46:37;101321.81;;;-1.77;93.88
64835;BME280;51293;59.296;18.006;2023-01-28T05:49:11;101321.28;;;-1.71;93.78
64835;BME280;51293;59.296;18.006;2023-01-28T05:51:38;101318.94;;;-1.55;93.29
64835;BME280;51293;59.296;18.006;2023-01-28T05:54:04;101308.47;;;-1.56;92.98
64835;BME280;51293;59.296;18.006;2023-01-28T05:56:30;101311.66;;;-1.53;92.83
64835;BME280;51293;59.296;18.006;2023-01-28T05:58:55;101303.00;;;-1.55;93.06
64835;BME280;51293;59.296;18.006;2023-01-28T06:01:21;101299.50;;;-1.55;93.24
64835;BME280;51293;59.296;18.006;2023-01-28T06:03:46;101310.69;;;-1.52;93.32
64835;BME280;51293;59.296;18.006;2023-01-28T06:06:11;101311.25;;;-1.48;93.54
64835;BME280;51293;59.296;18.006;2023-01-28T06:08:37;101288.34;;;-1.39;93.61
64835;BME280;51293;59.296;18.006;2023-01-28T06:11:02;101302.88;;;-1.34;93.65
64835;BME280;51293;59.296;18.006;2023-01-28T06:13:28;101288.19;;;-1.28;93.54
64835;BME280;51293;59.296;18.006;2023-01-28T06:15:53;101299.38;;;-1.34;94.23
64835;BME280;51293;59.296;18.006;2023-01-28T06:18:18;101299.09;;;-1.31;94.61
64835;BME280;51293;59.296;18.006;2023-01-28T06:20:44;101292.09;;;-1.23;93.67
64835;BME280;51293;59.296;18.006;2023-01-28T06:23:09;101301.06;;;-1.14;93.26
64835;BME280;51293;59.296;18.006;2023-01-28T06:25:34;101289.69;;;-1.16;93.33
64835;BME280;51293;59.296;18.006;2023-01-28T06:28:00;101290.69;;;-1.27;93.57
64835;BME280;51293;59.296;18.006;2023-01-28T06:30:25;101290.44;;;-1.24;93.48
64835;BME280;51293;59.296;18.006;2023-01-28T06:32:55;101301.47;;;-1.19;93.75
64835;BME280;51293;59.296;18.006;2023-01-28T06:35:20;101294.78;;;-1.23;93.65
64835;BME280;51293;59.296;18.006;2023-01-28T06:37:46;101302.16;;;-1.26;93.79
64835;BME280;51293;59.296;18.006;2023-01-28T06:40:11;101298.41;;;-1.24;93.93
64835;BME280;51293;59.296;18.006;2023-01-28T06:42:37;101288.72;;;-1.25;93.84
64835;BME280;51293;59.296;18.006;2023-01-28T06:45:02;101282.88;;;-1.28;94.09
64835;BME280;51293;59.296;18.006;2023-01-28T06:47:28;101299.78;;;-1.29;94.07
64835;BME280;51293;59.296;18.006;2023-01-28T06:49:53;101285.66;;;-1.30;94.28
64835;BME280;51293;59.296;18.006;2023-01-28T06:52:18;101269.56;;;-1.28;94.37
64835;BME280;51293;59.296;18.006;2023-01-28T06:54:44;101278.94;;;-1.34;95.00
64835;BME280;51293;59.296;18.006;2023-01-28T06:57:09;101287.34;;;-1.38;95.33
64835;BME280;51293;59.296;18.006;2023-01-28T06:59:34;101284.84;;;-1.30;95.17
64835;BME280;51293;59.296;18.006;2023-01-28T07:02:00;101288.59;;;-1.33;95.39
64835;BME280;51293;59.296;18.006;2023-01-28T07:04:25;101278.81;;;-1.32;95.50
64835;BME280;51293;59.296;18.006;2023-01-28T07:06:51;101274.22;;;-1.30;95.63
64835;BME280;51293;59.296;18.006;2023-01-28T07:09:16;101267.31;;;-1.33;95.92
64835;BME280;51293;59.296;18.006;2023-01-28T07:11:41;101273.38;;;-1.31;96.07
64835;BME280;51293;59.296;18.006;2023-01-28T07:14:07;101292.94;;;-1.32;96.23
64835;BME280;51293;59.296;18.006;2023-01-28T07:16:32;101274.34;;;-1.32;96.38
64835;BME280;51293;59.296;18.006;2023-01-28T07:18:57;101260.50;;;-1.35;96.62
64835;BME280;51293;59.296;18.006;2023-01-28T07:21:23;101271.13;;;-1.35;96.99
64835;BME280;51293;59.296;18.006;2023-01-28T07:23:48;101268.88;;;-1.30;96.51
64835;BME280;51293;59.296;18.006;2023-01-28T07:26:14;101270.13;;;-1.34;96.96
64835;BME280;51293;59.296;18.006;2023-01-28T07:28:40;101265.41;;;-1.31;96.86
64835;BME280;51293;59.296;18.006;2023-01-28T07:31:05;101253.50;;;-1.36;96.91
64835;BME280;51293;59.296;18.006;2023-01-28T07:33:30;101257.28;;;-1.39;97.51
64835;BME280;51293;59.296;18.006;2023-01-28T07:35:56;101250.84;;;-1.36;97.56
64835;BME280;51293;59.296;18.006;2023-01-28T07:38:21;101258.81;;;-1.36;97.54
64835;BME280;51293;59.296;18.006;2023-01-28T07:40:47;101254.91;;;-1.23;97.25
64835;BME280;51293;59.296;18.006;2023-01-28T07:43:12;101268.59;;;-1.27;97.60
64835;BME280;51293;59.296;18.006;2023-01-28T07:45:38;101264.81;;;-1.25;97.62
64835;BME280;51293;59.296;18.006;2023-01-28T07:48:05;101259.78;;;-1.28;97.72
64835;BME280;51293;59.296;18.006;2023-01-28T07:50:33;101252.25;;;-1.32;98.05
64835;BME280;51293;59.296;18.006;2023-01-28T07:53:01;101243.16;;;-1.30;98.15
64835;BME280;51293;59.296;18.006;2023-01-28T07:55:27;101240.63;;;-1.31;98.33
64835;BME280;51293;59.296;18.006;2023-01-28T07:57:54;101227.88;;;-1.28;98.60
64835;BME280;51293;59.296;18.006;2023-01-28T08:00:29;101228.59;;;-1.26;98.42
64835;BME280;51293;59.296;18.006;2023-01-28T08:02:56;101232.50;;;-1.30;98.97
64835;BME280;51293;59.296;18.006;2023-01-28T08:05:23;101236.16;;;-1.31;99.10
64835;BME280;51293;59.296;18.006;2023-01-28T08:07:49;101225.22;;;-1.28;99.11
64835;BME280;51293;59.296;18.006;2023-01-28T08:10:16;101206.78;;;-1.29;99.21
64835;BME280;51293;59.296;18.006;2023-01-28T08:12:50;101209.56;;;-1.21;99.30
64835;BME280;51293;59.296;18.006;2023-01-28T08:15:16;101211.66;;;-1.25;99.19
64835;BME280;51293;59.296;18.006;2023-01-28T08:17:41;101201.00;;;-1.25;99.16
64835;BME280;51293;59.296;18.006;2023-01-28T08:20:07;101204.81;;;-1.27;99.56
64835;BME280;51293;59.296;18.006;2023-01-28T08:22:34;101202.84;;;-1.25;99.58
64835;BME280;51293;59.296;18.006;2023-01-28T08:24:59;101179.63;;;-1.33;100.00
64835;BME280;51293;59.296;18.006;2023-01-28T08:27:24;101185.22;;;-1.26;100.00
64835;BME280;51293;59.296;18.006;2023-01-28T08:29:50;101191.78;;;-1.21;100.00
64835;BME280;51293;59.296;18.006;2023-01-28T08:32:15;101175.84;;;-1.21;99.91
64835;BME280;51293;59.296;18.006;2023-01-28T08:34:41;101183.66;;;-1.19;100.00
64835;BME280;51293;59.296;18.006;2023-01-28T08:37:06;101178.47;;;-1.11;99.87
64835;BME280;51293;59.296;18.006;2023-01-28T08:39:31;101180.31;;;-1.21;100.00
64835;BME280;51293;59.296;18.006;2023-01-28T08:41:57;101177.38;;;-1.18;100.00
64835;BME280;51293;59.296;18.006;2023-01-28T08:44:22;101161.41;;;-1.18;100.00
64835;BME280;51293;59.296;18.006;2023-01-28T08:46:47;101169.25;;;-1.17;100.00
64835;BME280;51293;59.296;18.006;2023-01-28T08:49:13;101145.19;;;-1.15;100.00
64835;BME280;51293;59.296;18.006;2023-01-28T08:51:38;101154.00;;;-1.15;100.00
64835;BME280;51293;59.296;18.006;2023-01-28T08:54:03;101160.56;;;-1.09;100.00
64835;BME280;51293;59.296;18.006;2023-01-28T08:56:29;101190.50;;;-1.07;100.00
64835;BME280;51293;59.296;18.006;2023-01-28T08:58:54;101194.53;;;-1.03;100.00
64835;BME280;51293;59.296;18.006;2023-01-28T09:01:20;101174.09;;;-1.02;100.00
64835;BME280;51293;59.296;18.006;2023-01-28T09:03:45;101180.94;;;-1.00;100.00
64835;BME280;51293;59.296;18.006;2023-01-28T09:06:10;101171.88;;;-0.97;100.00
64835;BME280;51293;59.296;18.006;2023-01-28T09:08:36;101165.09;;;-0.92;100.00
64835;BME280;51293;59.296;18.006;2023-01-28T09:11:01;101158.84;;;-0.91;100.00
64835;BME280;51293;59.296;18.006;2023-01-28T09:13:27;101159.94;;;-0.93;100.00
64835;BME280;51293;59.296;18.006;2023-01-28T09:15:52;101148.44;;;-0.84;100.00
64835;BME280;51293;59.296;18.006;2023-01-28T09:18:18;101148.88;;;-0.89;100.00
64835;BME280;51293;59.296;18.006;2023-01-28T09:20:44;101149.41;;;-0.85;100.00
64835;BME280;51293;59.296;18.006;2023-01-28T09:23:10;101119.47;;;-0.87;100.00
64835;BME280;51293;59.296;18.006;2023-01-28T09:25:36;101135.00;;;-0.82;100.00
64835;BME280;51293;59.296;18.006;2023-01-28T09:28:01;101114.56;;;-0.82;100.00
64835;BME280;51293;59.296;18.006;2023-01-28T09:30:28;101131.34;;;-0.81;100.00
64835;BME280;51293;59.296;18.006;2023-01-28T09:32:54;101130.22;;;-0.79;100.00
64835;BME280;51293;59.296;18.006;2023-01-28T09:35:21;101100.13;;;-0.79;100.00
64835;BME280;51293;59.296;18.006;2023-01-28T09:37:47;101082.88;;;-0.75;100.00
64835;BME280;51293;59.296;18.006;2023-01-28T09:40:33;101088.44;;;-0.69;100.00
64835;BME280;51293;59.296;18.006;2023-01-28T09:45:40;101096.34;;;-0.59;100.00
64835;BME280;51293;59.296;18.006;2023-01-28T09:48:13;101092.94;;;-0.51;100.00
64835;BME280;51293;59.296;18.006;2023-01-28T09:50:45;101090.22;;;-0.42;100.00
64835;BME280;51293;59.296;18.006;2023-01-28T09:53:20;101082.38;;;-0.43;100.00
64835;BME280;51293;59.296;18.006;2023-01-28T09:55:49;101075.13;;;-0.41;100.00
64835;BME280;51293;59.296;18.006;2023-01-28T09:58:17;101073.81;;;-0.37;100.00
64835;BME280;51293;59.296;18.006;2023-01-28T10:09:17;101072.59;;;-0.07;100.00
64835;BME280;51293;59.296;18.006;2023-01-28T10:11:57;101079.84;;;0.01;100.00
64835;BME280;51293;59.296;18.006;2023-01-28T10:15:08;101069.59;;;0.14;100.00
64835;BME280;51293;59.296;18.006;2023-01-28T10:17:39;101065.34;;;0.21;99.58
64835;BME280;51293;59.296;18.006;2023-01-28T10:22:40;101053.06;;;0.28;99.45
64835;BME280;51293;59.296;18.006;2023-01-28T10:25:19;101044.59;;;0.33;99.59
64835;BME280;51293;59.296;18.006;2023-01-28T10:27:46;101031.81;;;0.36;99.66
64835;BME280;51293;59.296;18.006;2023-01-28T10:32:52;101025.03;;;0.42;99.00
64835;BME280;51293;59.296;18.006;2023-01-28T10:35:18;101025.94;;;0.59;98.32
64835;BME280;51293;59.296;18.006;2023-01-28T10:37:44;101026.41;;;0.54;98.44
64835;BME280;51293;59.296;18.006;2023-01-28T10:40:16;101018.41;;;0.54;98.23
64835;BME280;51293;59.296;18.006;2023-01-28T10:42:42;101025.25;;;0.56;98.48
64835;BME280;51293;59.296;18.006;2023-01-28T10:45:27;101016.13;;;0.59;98.55
64835;BME280;51293;59.296;18.006;2023-01-28T10:50:26;101033.13;;;0.66;98.38
64835;BME280;51293;59.296;18.006;2023-01-28T10:52:56;101021.63;;;0.66;98.70
64835;BME280;51293;59.296;18.006;2023-01-28T10:55:26;101025.53;;;0.79;98.33
64835;BME280;51293;59.296;18.006;2023-01-28T10:57:53;101020.69;;;0.75;98.04
64835;BME280;51293;59.296;18.006;2023-01-28T11:02:48;101037.06;;;0.88;97.78
64835;BME280;51293;59.296;18.006;2023-01-28T11:05:25;101033.38;;;0.81;98.25
64835;BME280;51293;59.296;18.006;2023-01-28T11:08:14;101035.75;;;0.84;98.31
64835;BME280;51293;59.296;18.006;2023-01-28T11:10:41;101030.06;;;0.87;98.16
64835;BME280;51293;59.296;18.006;2023-01-28T11:13:21;101018.09;;;0.91;97.97
64835;BME280;51293;59.296;18.006;2023-01-28T11:15:53;101011.25;;;0.89;98.36
64835;BME280;51293;59.296;18.006;2023-01-28T11:18:25;101012.78;;;0.99;98.09
64835;BME280;51293;59.296;18.006;2023-01-28T11:21:19;101012.78;;;0.99;98.40
64835;BME280;51293;59.296;18.006;2023-01-28T11:24:03;101026.03;;;1.17;97.85
64835;BME280;51293;59.296;18.006;2023-01-28T11:26:30;101020.22;;;1.38;96.76
64835;BME280;51293;59.296;18.006;2023-01-28T11:28:57;101021.91;;;1.47;96.21
64835;BME280;51293;59.296;18.006;2023-01-28T11:31:22;101011.91;;;1.41;96.27
64835;BME280;51293;59.296;18.006;2023-01-28T11:33:55;101015.91;;;1.45;96.03
64835;BME280;51293;59.296;18.006;2023-01-28T11:36:32;101021.59;;;1.50;95.80
64835;BME280;51293;59.296;18.006;2023-01-28T11:39:15;101021.59;;;1.42;96.28
64835;BME280;51293;59.296;18.006;2023-01-28T11:41:41;101018.25;;;1.48;96.31
64835;BME280;51293;59.296;18.006;2023-01-28T11:44:22;101017.25;;;1.49;96.59
64835;BME280;51293;59.296;18.006;2023-01-28T11:47:42;100994.22;;;1.56;95.66
64835;BME280;51293;59.296;18.006;2023-01-28T11:50:21;101001.25;;;1.57;95.94
64835;BME280;51293;59.296;18.006;2023-01-28T12:09:45;100958.53;;;1.49;96.94
64835;BME280;51293;59.296;18.006;2023-01-28T12:24:29;100941.34;;;1.44;97.44
64835;BME280;51293;59.296;18.006;2023-01-28T12:35:23;100929.66;;;1.45;97.70
64835;BME280;51293;59.296;18.006;2023-01-28T12:41:02;100934.16;;;1.60;97.11
64835;BME280;51293;59.296;18.006;2023-01-28T12:44:05;100937.00;;;1.59;96.90
64835;BME280;51293;59.296;18.006;2023-01-28T12:46:56;100934.81;;;1.62;97.15
64835;BME280;51293;59.296;18.006;2023-01-28T12:49:34;100932.97;;;1.63;97.20
64835;BME280;51293;59.296;18.006;2023-01-28T12:52:03;100930.84;;;1.58;97.13
64835;BME280;51293;59.296;18.006;2023-01-28T12:54:38;100922.66;;;1.60;97.17
64835;BME280;51293;59.296;18.006;2023-01-28T12:57:08;100945.00;;;1.59;97.58
64835;BME280;51293;59.296;18.006;2023-01-28T13:02:38;100930.31;;;1.71;96.95
64835;BME280;51293;59.296;18.006;2023-01-28T13:05:13;100928.16;;;1.58;97.28
64835;BME280;51293;59.296;18.006;2023-01-28T13:07:56;100928.81;;;1.60;97.53
64835;BME280;51293;59.296;18.006;2023-01-28T13:10:28;100926.97;;;1.69;97.04
64835;BME280;51293;59.296;18.006;2023-01-28T13:12:56;100926.81;;;1.71;96.67
64835;BME280;51293;59.296;18.006;2023-01-28T13:15:23;100929.66;;;1.69;97.06
64835;BME280;51293;59.296;18.006;2023-01-28T13:17:57;100934.00;;;1.62;97.14
64835;BME280;51293;59.296;18.006;2023-01-28T13:23:03;100933.16;;;1.69;97.35
64835;BME280;51293;59.296;18.006;2023-01-28T13:25:33;100934.81;;;1.62;97.45
64835;BME280;51293;59.296;18.006;2023-01-28T13:28:04;100932.66;;;1.58;97.98
64835;BME280;51293;59.296;18.006;2023-01-28T13:30:32;100930.50;;;1.61;98.02
64835;BME280;51293;59.296;18.006;2023-01-28T13:33:05;100933.16;;;1.61;97.86
64835;BME280;51293;59.296;18.006;2023-01-28T13:35:36;100931.97;;;1.56;98.08
64835;BME280;51293;59.296;18.006;2023-01-28T13:38:18;100931.84;;;1.57;98.17
64835;BME280;51293;59.296;18.006;2023-01-28T13:40:58;100931.97;;;1.48;98.55
64835;BME280;51293;59.296;18.006;2023-01-28T13:43:34;100931.50;;;1.52;98.34
64835;BME280;51293;59.296;18.006;2023-01-28T13:46:27;100942.66;;;1.48;98.79
64835;BME280;51293;59.296;18.006;2023-01-28T13:48:55;100938.50;;;1.45;98.74
64835;BME280;51293;59.296;18.006;2023-01-28T13:51:24;100941.16;;;1.45;99.35
64835;BME280;51293;59.296;18.006;2023-01-28T13:54:28;100945.00;;;1.43;99.28
64835;BME280;51293;59.296;18.006;2023-01-28T13:59:53;100946.84;;;1.42;99.45
64835;BME280;51293;59.296;18.006;2023-01-28T14:05:40;100936.47;;;1.31;99.97
64835;BME280;51293;59.296;18.006;2023-01-28T14:08:28;100941.16;;;1.29;100.00
64835;BME280;51293;59.296;18.006;2023-01-28T14:17:16;100947.31;;;1.21;100.00
64835;BME280;51293;59.296;18.006;2023-01-28T14:19:46;100945.31;;;1.23;100.00
64835;BME280;51293;59.296;18.006;2023-01-28T14:22:17;100963.47;;;1.11;100.00
64835;BME280;51293;59.296;18.006;2023-01-28T14:24:44;100959.97;;;1.11;100.00
64835;BME280;51293;59.296;18.006;2023-01-28T14:27:19;100964.63;;;1.09;100.00
64835;BME280;51293;59.296;18.006;2023-01-28T14:32:50;100968.28;;;1.00;100.00
64835;BME280;51293;59.296;18.006;2023-01-28T14:35:28;100970.63;;;1.03;100.00
64835;BME280;51293;59.296;18.006;2023-01-28T14:37:54;100974.59;;;0.99;100.00
64835;BME280;51293;59.296;18.006;2023-01-28T14:40:20;100975.44;;;0.99;100.00